Morgenster — PHMY — position and weather

sailwx.info

Track history (hours):
 
Tides and Currents Weather Stations Pressure Air Temp Water Temp Dewpoint Dewpoint Depression Visibility Wind Speed Wind Dir Waves Ship Positions

Morgenster

Last reported at 2018-May-22 11:27 UTC. Time now 2018-May-24 15:58 UTC.
Position N 50°04' W 003°43'.

Length 38 m; draft 2.4 m.

Type: Sailing vessel. MMSI: 245136000.

Date/timePositionNaut miles runAvg speedWind from/ knotsBaromVisibWave heightAir tempDewpointWater temp
2018-May-22 11:27N 50°04' W 003°43'10 5.4
2018-May-22 09:41N 50°04' W 003°28'1 6.3
2018-May-22 09:29N 50°04' W 003°26'3 6.8
2018-May-22 09:00N 50°04' W 003°21'5 8.2
2018-May-22 08:21N 50°04' W 003°13'3 7.8
2018-May-22 08:00N 50°05' W 003°09'5 7.7
2018-May-22 07:24N 50°06' W 003°02'3 6.8
2018-May-22 06:57N 50°07' W 002°57'60 6.1
2018-May-21 21:04N 50°18' W 001°25'41 8.8
2018-May-21 16:23N 50°29' W 000°23'3 7.2
2018-May-21 16:01N 50°30' W 000°19'4 7.2
2018-May-21 15:29N 50°31' W 000°13'4 6.6
2018-May-21 14:55N 50°31' W 000°07'3 6.6
2018-May-21 14:29N 50°32' W 000°03'3 6.3
2018-May-21 13:58N 50°33' E 000°02'3 6.0
2018-May-21 13:30N 50°34' E 000°06'19 6.5
2018-May-21 10:35N 50°39' E 000°35'1 8.4
2018-May-21 10:25N 50°40' E 000°37'4 8.3
2018-May-21 10:00N 50°42' E 000°42'33 7.7
2018-May-21 05:38N 50°59' E 001°27'2 7.3
2018-May-21 05:26N 50°58' E 001°29'3 6.8
2018-May-21 04:58N 50°56' E 001°33'2 4.3
2018-May-21 04:30N 50°57' E 001°36'2 4.0
2018-May-21 03:59N 50°57' E 001°39'2 3.9
2018-May-21 03:29N 50°58' E 001°42'2 4.1
2018-May-21 02:59N 50°58' E 001°46'2 3.9
2018-May-21 02:29N 50°58' E 001°49'2 0.2
2018-May-20 17:39N 50°58' E 001°52'0 0.0
2018-May-20 17:27N 50°58' E 001°52'5 1.9
2018-May-20 14:55N 50°60' E 001°45'1 2.1
2018-May-20 14:26N 50°59' E 001°46'2 4.9
2018-May-20 13:59N 50°59' E 001°49'2 2.7
2018-May-20 13:21N 50°58' E 001°52'0 0.1
2018-May-20 11:54N 50°58' E 001°52'0 0.0
2018-May-20 11:24N 50°58' E 001°52'0 0.0
2018-May-19 15:23N 50°58' E 001°52'2 1.8
2018-May-19 14:15N 50°59' E 001°49'1 5.5
2018-May-19 14:00N 50°60' E 001°47'21 0.5
2018-May-17 17:22N 51°06' E 001°15'3 7.0
2018-May-17 17:00N 51°06' E 001°19'3 6.6
2018-May-17 16:30N 51°08' E 001°24'4 7.1
2018-May-17 16:00N 51°11' E 001°25'3 6.4
2018-May-17 15:30N 51°14' E 001°27'3 5.7
2018-May-17 15:00N 51°17' E 001°28'3 5.3
2018-May-17 14:30N 51°19' E 001°28'3 5.4
2018-May-17 14:00N 51°22' E 001°28'3 5.8
2018-May-17 13:30N 51°24' E 001°24'4 7.2
2018-May-17 12:59N 51°24' E 001°18'  
2018-May-14 18:08N 51°29' E 001°17'2 8.6
2018-May-14 17:55N 51°29' E 001°20'4 9.0
2018-May-14 17:30N 51°29' E 001°26'4 8.1
2018-May-14 17:00N 51°29' E 001°33'4 8.6
2018-May-14 16:30N 51°29' E 001°40'4 8.9
2018-May-14 16:00N 51°29' E 001°47'5 8.2
2018-May-14 15:26N 51°28' E 001°54'4 6.9
2018-May-14 14:52N 51°26' E 001°60'3 6.9
2018-May-14 14:27N 51°26' E 002°04'5 7.0
2018-May-14 13:40N 51°24' E 002°13'1 7.0
2018-May-14 13:30N 51°24' E 002°15'3 6.6
2018-May-14 13:00N 51°23' E 002°20'3 6.8
2018-May-14 12:30N 51°23' E 002°25'3 6.5
2018-May-14 12:00N 51°23' E 002°31'3 6.4
2018-May-14 11:30N 51°23' E 002°36'2 3.9
2018-May-14 10:59N 51°22' E 002°39'3 5.5
2018-May-14 10:30N 51°21' E 002°42'3 5.7
2018-May-14 09:59N 51°19' E 002°46'3 6.0
2018-May-14 09:29N 51°17' E 002°49'3 6.1
2018-May-14 09:01N 51°15' E 002°53'2 4.1
2018-May-14 08:30N 51°14' E 002°56'0 0.4
2018-May-14 08:00N 51°14' E 002°56'0 0.0
2018-May-14 07:27N 51°14' E 002°56'0 0.1
2018-May-14 06:18N 51°14' E 002°56'0 0.8
2018-May-14 05:55N 51°14' E 002°56'0 0.0
2018-May-14 05:25N 51°14' E 002°56'0 0.0
2018-May-14 04:55N 51°14' E 002°56'0 0.0
2018-May-14 04:28N 51°14' E 002°56'0 0.0
2018-May-14 03:58N 51°14' E 002°56'0 0.0
2018-May-14 03:28N 51°14' E 002°56'0 0.0
2018-May-14 02:58N 51°14' E 002°56'0 0.0
2018-May-14 02:28N 51°14' E 002°56'0 0.0
2018-May-14 01:58N 51°14' E 002°56'0 0.0
2018-May-14 01:19N 51°14' E 002°56'0 0.0
2018-May-14 00:58N 51°14' E 002°56'0 0.0
2018-May-14 00:28N 51°14' E 002°56'0 0.0
2018-May-13 23:58N 51°14' E 002°56'0 0.0
2018-May-13 23:28N 51°14' E 002°56'0 0.0
2018-May-13 22:58N 51°14' E 002°56'0 0.0
2018-May-13 22:28N 51°14' E 002°56'0 0.0
2018-May-13 21:58N 51°14' E 002°56'0 0.0
2018-May-13 21:28N 51°14' E 002°56'0 0.0
2018-May-13 20:58N 51°14' E 002°56'0 0.0
2018-May-13 20:28N 51°14' E 002°56'0 0.0
2018-May-13 19:58N 51°14' E 002°56'0 0.0
2018-May-13 19:28N 51°14' E 002°56'0 0.0
2018-May-13 18:58N 51°14' E 002°56'0 0.0
2018-May-13 18:28N 51°14' E 002°56'0 0.0
2018-May-13 17:55N 51°14' E 002°56'0 0.0
2018-May-13 17:28N 51°14' E 002°56'0 0.0
2018-May-13 16:52N 51°14' E 002°56'0 0.0
2018-May-13 16:19N 51°14' E 002°56'0 0.0
2018-May-13 15:49N 51°14' E 002°56'0 0.0
2018-May-13 15:28N 51°14' E 002°56'0 0.0
2018-May-13 14:55N 51°14' E 002°56'0 0.2
2018-May-13 14:30N 51°14' E 002°56'0 0.1
2018-May-13 14:00N 51°14' E 002°56'0 0.0
2018-May-13 13:30N 51°14' E 002°56'0 0.0
2018-May-13 12:57N 51°14' E 002°56'0 0.0
2018-May-13 12:31N 51°14' E 002°56'0 0.0
2018-May-13 11:59N 51°14' E 002°56'0 0.0
2018-May-13 11:30N 51°14' E 002°56'0 0.0
2018-May-13 11:00N 51°14' E 002°56'0 0.0
2018-May-13 10:31N 51°14' E 002°56'0 0.4
2018-May-13 10:00N 51°14' E 002°55'2 3.6
2018-May-13 09:29N 51°16' E 002°55'0 0.7
2018-May-13 09:01N 51°16' E 002°55'2 3.1
2018-May-13 08:31N 51°14' E 002°56'0 0.3
2018-May-13 08:01N 51°14' E 002°56'0 0.0
2018-May-13 07:30N 51°14' E 002°56'0 0.0
2018-May-13 07:00N 51°14' E 002°56'0 0.0
2018-May-13 06:31N 51°14' E 002°56'0 0.0
2018-May-13 05:59N 51°14' E 002°56'0 0.0
2018-May-13 05:30N 51°14' E 002°56'0 0.0
2018-May-13 04:59N 51°14' E 002°56'0 0.0
2018-May-13 04:30N 51°14' E 002°56'0 0.0
2018-May-13 04:00N 51°14' E 002°56'0 0.0
2018-May-13 03:28N 51°14' E 002°56'0 0.0
2018-May-13 03:00N 51°14' E 002°56'0 0.0
2018-May-13 02:31N 51°14' E 002°56'0 0.0
2018-May-13 02:00N 51°14' E 002°56'0 0.0
2018-May-13 01:23N 51°14' E 002°56'0 0.0
2018-May-13 01:01N 51°14' E 002°56'0 0.0
2018-May-13 00:31N 51°14' E 002°56'0 0.0
2018-May-13 00:00N 51°14' E 002°56'0 0.0
2018-May-12 23:30N 51°14' E 002°56'0 0.0
2018-May-12 23:00N 51°14' E 002°56'0 0.0
2018-May-12 22:31N 51°14' E 002°56'0 0.0
2018-May-12 22:01N 51°14' E 002°56'0 0.0
2018-May-12 21:31N 51°14' E 002°56'0 0.0
2018-May-12 21:00N 51°14' E 002°56'0 0.0
2018-May-12 20:30N 51°14' E 002°56'0 0.0
2018-May-12 20:00N 51°14' E 002°56'0 0.0
2018-May-12 19:30N 51°14' E 002°56'0 0.0
2018-May-12 19:00N 51°14' E 002°56'0 0.0
2018-May-12 18:28N 51°14' E 002°56'0 0.0
2018-May-12 18:01N 51°14' E 002°56'0 0.0
2018-May-12 17:31N 51°14' E 002°56'0 0.0
2018-May-12 16:57N 51°14' E 002°56'0 0.0
2018-May-12 16:29N 51°14' E 002°56'0 0.0
2018-May-12 16:01N 51°14' E 002°56'0 0.0
2018-May-12 15:30N 51°14' E 002°56'0 0.0
2018-May-12 14:59N 51°14' E 002°56'0 0.0
2018-May-12 14:30N 51°14' E 002°56'0 0.0
2018-May-12 14:01N 51°14' E 002°56'0 0.0
2018-May-12 13:31N 51°14' E 002°56'0 0.0
2018-May-12 13:01N 51°14' E 002°56'0 0.0
2018-May-12 12:31N 51°14' E 002°56'0 0.3
2018-May-12 12:01N 51°14' E 002°56'2 4.5
2018-May-12 11:30N 51°14' E 002°52'  
Track history (hours):
 
Tides and Currents Weather Stations Pressure Air Temp Water Temp Dewpoint Dewpoint Depression Visibility Wind Speed Wind Dir Waves Ship Positions

Morgenster

Last reported at 2018-May-22 11:27 UTC. Time now 2018-May-24 15:58 UTC.
Position N 50°04' W 003°43'.

Length 38 m; draft 2.4 m.

Type: Sailing vessel. MMSI: 245136000.

Date/timePositionNaut miles runAvg speedWind from/ knotsBaromVisibWave heightAir tempDewpointWater temp
2018-May-22 11:27N 50°04' W 003°43'10 5.4
2018-May-22 09:41N 50°04' W 003°28'1 6.3
2018-May-22 09:29N 50°04' W 003°26'3 6.8
2018-May-22 09:00N 50°04' W 003°21'5 8.2
2018-May-22 08:21N 50°04' W 003°13'3 7.8
2018-May-22 08:00N 50°05' W 003°09'5 7.7
2018-May-22 07:24N 50°06' W 003°02'3 6.8
2018-May-22 06:57N 50°07' W 002°57'60 6.1
2018-May-21 21:04N 50°18' W 001°25'41 8.8
2018-May-21 16:23N 50°29' W 000°23'3 7.2
2018-May-21 16:01N 50°30' W 000°19'4 7.2
2018-May-21 15:29N 50°31' W 000°13'4 6.6
2018-May-21 14:55N 50°31' W 000°07'3 6.6
2018-May-21 14:29N 50°32' W 000°03'3 6.3
2018-May-21 13:58N 50°33' E 000°02'3 6.0
2018-May-21 13:30N 50°34' E 000°06'19 6.5
2018-May-21 10:35N 50°39' E 000°35'1 8.4
2018-May-21 10:25N 50°40' E 000°37'4 8.3
2018-May-21 10:00N 50°42' E 000°42'33 7.7
2018-May-21 05:38N 50°59' E 001°27'2 7.3
2018-May-21 05:26N 50°58' E 001°29'3 6.8
2018-May-21 04:58N 50°56' E 001°33'2 4.3
2018-May-21 04:30N 50°57' E 001°36'2 4.0
2018-May-21 03:59N 50°57' E 001°39'2 3.9
2018-May-21 03:29N 50°58' E 001°42'2 4.1
2018-May-21 02:59N 50°58' E 001°46'2 3.9
2018-May-21 02:29N 50°58' E 001°49'2 0.2
2018-May-20 17:39N 50°58' E 001°52'0 0.0
2018-May-20 17:27N 50°58' E 001°52'5 1.9
2018-May-20 14:55N 50°60' E 001°45'1 2.1
2018-May-20 14:26N 50°59' E 001°46'2 4.9
2018-May-20 13:59N 50°59' E 001°49'2 2.7
2018-May-20 13:21N 50°58' E 001°52'0 0.1
2018-May-20 11:54N 50°58' E 001°52'0 0.0
2018-May-20 11:24N 50°58' E 001°52'0 0.0
2018-May-19 15:23N 50°58' E 001°52'2 1.8
2018-May-19 14:15N 50°59' E 001°49'1 5.5
2018-May-19 14:00N 50°60' E 001°47'21 0.5
2018-May-17 17:22N 51°06' E 001°15'3 7.0
2018-May-17 17:00N 51°06' E 001°19'3 6.6
2018-May-17 16:30N 51°08' E 001°24'4 7.1
2018-May-17 16:00N 51°11' E 001°25'3 6.4
2018-May-17 15:30N 51°14' E 001°27'3 5.7
2018-May-17 15:00N 51°17' E 001°28'3 5.3
2018-May-17 14:30N 51°19' E 001°28'3 5.4
2018-May-17 14:00N 51°22' E 001°28'3 5.8
2018-May-17 13:30N 51°24' E 001°24'4 7.2
2018-May-17 12:59N 51°24' E 001°18'  
2018-May-14 18:08N 51°29' E 001°17'2 8.6
2018-May-14 17:55N 51°29' E 001°20'4 9.0
2018-May-14 17:30N 51°29' E 001°26'4 8.1
2018-May-14 17:00N 51°29' E 001°33'4 8.6
2018-May-14 16:30N 51°29' E 001°40'4 8.9
2018-May-14 16:00N 51°29' E 001°47'5 8.2
2018-May-14 15:26N 51°28' E 001°54'4 6.9
2018-May-14 14:52N 51°26' E 001°60'3 6.9
2018-May-14 14:27N 51°26' E 002°04'5 7.0
2018-May-14 13:40N 51°24' E 002°13'1 7.0
2018-May-14 13:30N 51°24' E 002°15'3 6.6
2018-May-14 13:00N 51°23' E 002°20'3 6.8
2018-May-14 12:30N 51°23' E 002°25'3 6.5
2018-May-14 12:00N 51°23' E 002°31'3 6.4
2018-May-14 11:30N 51°23' E 002°36'2 3.9
2018-May-14 10:59N 51°22' E 002°39'3 5.5
2018-May-14 10:30N 51°21' E 002°42'3 5.7
2018-May-14 09:59N 51°19' E 002°46'3 6.0
2018-May-14 09:29N 51°17' E 002°49'3 6.1
2018-May-14 09:01N 51°15' E 002°53'2 4.1
2018-May-14 08:30N 51°14' E 002°56'0 0.4
2018-May-14 08:00N 51°14' E 002°56'0 0.0
2018-May-14 07:27N 51°14' E 002°56'0 0.1
2018-May-14 06:18N 51°14' E 002°56'0 0.8
2018-May-14 05:55N 51°14' E 002°56'0 0.0
2018-May-14 05:25N 51°14' E 002°56'0 0.0
2018-May-14 04:55N 51°14' E 002°56'0 0.0
2018-May-14 04:28N 51°14' E 002°56'0 0.0
2018-May-14 03:58N 51°14' E 002°56'0 0.0
2018-May-14 03:28N 51°14' E 002°56'0 0.0
2018-May-14 02:58N 51°14' E 002°56'0 0.0
2018-May-14 02:28N 51°14' E 002°56'0 0.0
2018-May-14 01:58N 51°14' E 002°56'0 0.0
2018-May-14 01:19N 51°14' E 002°56'0 0.0
2018-May-14 00:58N 51°14' E 002°56'0 0.0
2018-May-14 00:28N 51°14' E 002°56'0 0.0
2018-May-13 23:58N 51°14' E 002°56'0 0.0
2018-May-13 23:28N 51°14' E 002°56'0 0.0
2018-May-13 22:58N 51°14' E 002°56'0 0.0
2018-May-13 22:28N 51°14' E 002°56'0 0.0
2018-May-13 21:58N 51°14' E 002°56'0 0.0
2018-May-13 21:28N 51°14' E 002°56'0 0.0
2018-May-13 20:58N 51°14' E 002°56'0 0.0
2018-May-13 20:28N 51°14' E 002°56'0 0.0
2018-May-13 19:58N 51°14' E 002°56'0 0.0
2018-May-13 19:28N 51°14' E 002°56'0 0.0
2018-May-13 18:58N 51°14' E 002°56'0 0.0
2018-May-13 18:28N 51°14' E 002°56'0 0.0
2018-May-13 17:55N 51°14' E 002°56'0 0.0
2018-May-13 17:28N 51°14' E 002°56'0 0.0
2018-May-13 16:52N 51°14' E 002°56'0 0.0
2018-May-13 16:19N 51°14' E 002°56'0 0.0
2018-May-13 15:49N 51°14' E 002°56'0 0.0
2018-May-13 15:28N 51°14' E 002°56'0 0.0
2018-May-13 14:55N 51°14' E 002°56'0 0.2
2018-May-13 14:30N 51°14' E 002°56'0 0.1
2018-May-13 14:00N 51°14' E 002°56'0 0.0
2018-May-13 13:30N 51°14' E 002°56'0 0.0
2018-May-13 12:57N 51°14' E 002°56'0 0.0
2018-May-13 12:31N 51°14' E 002°56'0 0.0
2018-May-13 11:59N 51°14' E 002°56'0 0.0
2018-May-13 11:30N 51°14' E 002°56'0 0.0
2018-May-13 11:00N 51°14' E 002°56'0 0.0
2018-May-13 10:31N 51°14' E 002°56'0 0.4
2018-May-13 10:00N 51°14' E 002°55'2 3.6
2018-May-13 09:29N 51°16' E 002°55'0 0.7
2018-May-13 09:01N 51°16' E 002°55'2 3.1
2018-May-13 08:31N 51°14' E 002°56'0 0.3
2018-May-13 08:01N 51°14' E 002°56'0 0.0
2018-May-13 07:30N 51°14' E 002°56'0 0.0
2018-May-13 07:00N 51°14' E 002°56'0 0.0
2018-May-13 06:31N 51°14' E 002°56'0 0.0
2018-May-13 05:59N 51°14' E 002°56'0 0.0
2018-May-13 05:30N 51°14' E 002°56'0 0.0
2018-May-13 04:59N 51°14' E 002°56'0 0.0
2018-May-13 04:30N 51°14' E 002°56'0 0.0
2018-May-13 04:00N 51°14' E 002°56'0 0.0
2018-May-13 03:28N 51°14' E 002°56'0 0.0
2018-May-13 03:00N 51°14' E 002°56'0 0.0
2018-May-13 02:31N 51°14' E 002°56'0 0.0
2018-May-13 02:00N 51°14' E 002°56'0 0.0
2018-May-13 01:23N 51°14' E 002°56'0 0.0
2018-May-13 01:01N 51°14' E 002°56'0 0.0
2018-May-13 00:31N 51°14' E 002°56'0 0.0
2018-May-13 00:00N 51°14' E 002°56'0 0.0
2018-May-12 23:30N 51°14' E 002°56'0 0.0
2018-May-12 23:00N 51°14' E 002°56'0 0.0
2018-May-12 22:31N 51°14' E 002°56'0 0.0
2018-May-12 22:01N 51°14' E 002°56'0 0.0
2018-May-12 21:31N 51°14' E 002°56'0 0.0
2018-May-12 21:00N 51°14' E 002°56'0 0.0
2018-May-12 20:30N 51°14' E 002°56'0 0.0
2018-May-12 20:00N 51°14' E 002°56'0 0.0
2018-May-12 19:30N 51°14' E 002°56'0 0.0
2018-May-12 19:00N 51°14' E 002°56'0 0.0
2018-May-12 18:28N 51°14' E 002°56'0 0.0
2018-May-12 18:01N 51°14' E 002°56'0 0.0
2018-May-12 17:31N 51°14' E 002°56'0 0.0
2018-May-12 16:57N 51°14' E 002°56'0 0.0
2018-May-12 16:29N 51°14' E 002°56'0 0.0
2018-May-12 16:01N 51°14' E 002°56'0 0.0
2018-May-12 15:30N 51°14' E 002°56'0 0.0
2018-May-12 14:59N 51°14' E 002°56'0 0.0
2018-May-12 14:30N 51°14' E 002°56'0 0.0
2018-May-12 14:01N 51°14' E 002°56'0 0.0
2018-May-12 13:31N 51°14' E 002°56'0 0.0
2018-May-12 13:01N 51°14' E 002°56'0 0.0
2018-May-12 12:31N 51°14' E 002°56'0 0.3
2018-May-12 12:01N 51°14' E 002°56'2 4.5
2018-May-12 11:30N 51°14' E 002°52'  

Dump ship's entire track history